createdAt,value
2018-09-21T00:02:20.539Z,11.68
2018-09-21T00:04:50.849Z,7.97
2018-09-21T00:07:20.902Z,15.00
2018-09-21T00:09:51.126Z,8.88
2018-09-21T00:12:21.320Z,9.53
2018-09-21T00:14:51.375Z,8.20
2018-09-21T00:17:21.467Z,11.57
2018-09-21T00:19:51.550Z,11.57
2018-09-21T00:22:21.580Z,13.65
2018-09-21T00:24:51.686Z,15.63
2018-09-21T00:27:21.754Z,12.70
2018-09-21T00:29:51.992Z,14.58
2018-09-21T00:32:22.131Z,9.90
2018-09-21T00:34:52.257Z,11.70
2018-09-21T00:37:22.575Z,16.02
2018-09-21T00:39:52.839Z,12.37
2018-09-21T00:42:23.019Z,10.90
2018-09-21T00:44:53.150Z,10.18
2018-09-21T00:47:23.256Z,10.28
2018-09-21T00:49:53.317Z,7.05
2018-09-21T00:52:23.374Z,10.85
2018-09-21T00:54:53.422Z,14.73
2018-09-21T00:57:23.662Z,12.88
2018-09-21T00:59:53.741Z,9.45
2018-09-21T01:02:23.971Z,11.95
2018-09-21T01:04:54.018Z,11.48
2018-09-21T01:07:24.226Z,11.18
2018-09-21T01:09:54.351Z,8.70
2018-09-21T01:12:24.441Z,9.95
2018-09-21T01:14:54.538Z,11.63
2018-09-21T01:17:24.607Z,9.05
2018-09-21T01:19:54.680Z,10.23
2018-09-21T01:22:24.762Z,8.40
2018-09-21T01:24:54.879Z,9.10
2018-09-21T01:27:24.885Z,8.75
2018-09-21T01:29:54.986Z,8.45
2018-09-21T01:32:25.011Z,8.25
2018-09-21T01:34:55.299Z,9.15
2018-09-21T01:37:25.287Z,11.15
2018-09-21T01:39:55.336Z,13.50
2018-09-21T01:42:25.328Z,12.78
2018-09-21T01:44:55.441Z,12.47
2018-09-21T01:47:25.536Z,10.18
2018-09-21T01:49:55.623Z,10.23
2018-09-21T01:52:25.644Z,7.25
2018-09-21T01:54:55.701Z,12.43
2018-09-21T01:57:25.784Z,8.08
2018-09-21T01:59:55.854Z,10.75
2018-09-21T02:02:25.833Z,8.63
2018-09-21T02:04:56.001Z,10.65
2018-09-21T02:07:26.049Z,8.58
2018-09-21T02:09:56.062Z,6.95
2018-09-21T02:12:26.151Z,8.88
2018-09-21T02:14:56.211Z,10.40
2018-09-21T02:17:26.267Z,7.08
2018-09-21T02:19:56.364Z,11.35
2018-09-21T02:22:26.473Z,7.00
2018-09-21T02:24:56.528Z,8.23
2018-09-21T02:27:26.594Z,9.78
2018-09-21T02:29:56.689Z,6.80
2018-09-21T02:32:26.952Z,9.98
2018-09-21T02:34:57.059Z,8.08
2018-09-21T02:37:27.189Z,11.90
2018-09-21T02:39:57.417Z,7.25
2018-09-21T02:42:27.432Z,10.18
2018-09-21T02:44:57.503Z,9.70
2018-09-21T02:47:27.594Z,12.15
2018-09-21T02:49:57.810Z,13.53
2018-09-21T02:52:27.890Z,10.90
2018-09-21T02:54:58.038Z,13.28
2018-09-21T02:57:28.082Z,7.05
2018-09-21T02:59:58.184Z,9.00
2018-09-21T03:02:28.195Z,11.05
2018-09-21T03:04:58.348Z,10.93
2018-09-21T03:07:28.514Z,11.12
2018-09-21T03:09:58.656Z,8.58
2018-09-21T03:12:28.750Z,6.53
2018-09-21T03:14:58.850Z,9.00
2018-09-21T03:17:28.875Z,11.28
2018-09-21T03:19:58.987Z,11.83
2018-09-21T03:22:29.131Z,11.83
2018-09-21T03:24:59.315Z,11.18
2018-09-21T03:27:29.447Z,11.10
2018-09-21T03:29:59.468Z,9.55
2018-09-21T03:32:29.599Z,8.40
2018-09-21T03:34:59.663Z,9.60
2018-09-21T03:37:29.803Z,9.45
2018-09-21T03:40:00.024Z,9.63
2018-09-21T03:42:30.198Z,9.53
2018-09-21T03:45:00.273Z,7.55
2018-09-21T03:47:30.464Z,11.83
2018-09-21T03:50:00.747Z,8.13
2018-09-21T03:52:30.788Z,9.18
2018-09-21T03:55:00.921Z,11.35
2018-09-21T03:57:30.981Z,7.97
2018-09-21T04:00:01.140Z,8.23
2018-09-21T04:02:31.447Z,9.30
2018-09-21T04:05:01.528Z,11.95
2018-09-21T04:07:31.738Z,12.82
2018-09-21T04:10:01.796Z,14.05
2018-09-21T04:12:31.998Z,10.00
2018-09-21T04:15:02.107Z,12.90
2018-09-21T04:17:32.146Z,9.23
2018-09-21T04:20:02.359Z,11.43
2018-09-21T04:22:32.820Z,13.43
2018-09-21T04:25:03.698Z,10.03
2018-09-21T04:27:33.878Z,14.63
2018-09-21T04:30:03.977Z,10.35
2018-09-21T04:32:34.047Z,9.80
2018-09-21T04:35:05.177Z,11.43
2018-09-21T04:37:35.501Z,11.38
2018-09-21T04:40:05.799Z,12.33
2018-09-21T04:42:38.719Z,12.70
2018-09-21T04:45:08.952Z,13.43
2018-09-21T04:47:39.135Z,14.23
2018-09-21T04:50:09.213Z,11.33
2018-09-21T04:52:39.743Z,12.47
2018-09-21T04:55:09.851Z,11.45
2018-09-21T04:57:39.872Z,17.30
2018-09-21T05:00:10.173Z,14.65
2018-09-21T05:02:40.256Z,14.20
2018-09-21T05:05:10.330Z,9.93
2018-09-21T05:07:40.388Z,14.50
2018-09-21T05:10:10.534Z,28.23
2018-09-21T05:12:41.052Z,17.67
2018-09-21T05:15:11.229Z,19.77
2018-09-21T05:17:41.337Z,14.23
2018-09-21T05:20:11.420Z,15.95
2018-09-21T05:22:41.477Z,12.37
2018-09-21T05:25:11.604Z,13.78
2018-09-21T05:27:41.782Z,13.22
2018-09-21T05:30:11.876Z,16.97
2018-09-21T05:32:42.229Z,28.50
2018-09-21T05:35:12.491Z,15.15
2018-09-21T05:37:42.440Z,15.20
2018-09-21T05:40:12.692Z,14.70
2018-09-21T05:42:42.891Z,15.18
2018-09-21T05:45:12.980Z,11.25
2018-09-21T05:47:43.262Z,13.00
2018-09-21T05:50:13.466Z,12.78
2018-09-21T05:52:43.521Z,12.47
2018-09-21T05:55:13.599Z,16.32
2018-09-21T05:57:43.742Z,17.55
2018-09-21T06:00:15.819Z,14.13
2018-09-21T06:02:46.729Z,13.05
2018-09-21T06:05:16.832Z,23.77
2018-09-21T06:07:47.261Z,14.98
2018-09-21T06:10:17.569Z,19.62
2018-09-21T06:12:47.602Z,19.17
2018-09-21T06:15:17.720Z,12.23
2018-09-21T06:17:47.801Z,15.28
2018-09-21T06:20:17.828Z,21.37
2018-09-21T06:22:47.978Z,26.33
2018-09-21T06:25:18.040Z,18.23
2018-09-21T06:27:48.435Z,18.17
2018-09-21T06:30:18.494Z,18.40
2018-09-21T06:32:48.716Z,23.10
2018-09-21T06:35:18.804Z,15.38
2018-09-21T06:37:49.007Z,13.13
2018-09-21T06:40:19.180Z,15.13
2018-09-21T06:42:49.241Z,13.15
2018-09-21T06:45:19.418Z,13.28
2018-09-21T06:47:49.815Z,12.73
2018-09-21T06:50:19.943Z,12.07
2018-09-21T06:52:50.029Z,11.97
2018-09-21T06:55:20.297Z,14.40
2018-09-21T06:57:50.493Z,16.70
2018-09-21T07:00:20.645Z,12.05
2018-09-21T07:02:50.763Z,11.57
2018-09-21T07:05:20.973Z,12.75
2018-09-21T07:07:51.236Z,11.20
2018-09-21T07:10:21.407Z,10.55
2018-09-21T07:12:51.764Z,12.73
2018-09-21T07:15:21.940Z,9.85
2018-09-21T07:17:52.133Z,13.20
2018-09-21T07:20:22.200Z,12.10
2018-09-21T07:22:52.255Z,13.45
2018-09-21T07:25:22.253Z,12.75
2018-09-21T07:27:52.438Z,10.75
2018-09-21T07:30:22.556Z,18.67
2018-09-21T07:32:52.632Z,12.47
2018-09-21T07:35:22.694Z,12.07
2018-09-21T07:37:52.935Z,9.85
2018-09-21T07:40:23.070Z,12.28
2018-09-21T07:42:53.137Z,9.80
2018-09-21T07:45:23.239Z,8.80
2018-09-21T07:47:53.408Z,8.85
2018-09-21T07:50:23.716Z,11.12
2018-09-21T07:52:53.916Z,11.93
2018-09-21T07:55:24.226Z,16.93
2018-09-21T07:57:54.338Z,13.25
2018-09-21T08:00:24.432Z,10.63
2018-09-21T08:02:54.649Z,11.33
2018-09-21T08:05:29.942Z,10.30
2018-09-21T08:08:00.445Z,14.55
2018-09-21T08:10:30.885Z,9.93
2018-09-21T08:13:01.584Z,11.57
2018-09-21T08:15:32.030Z,10.58
2018-09-21T08:18:02.137Z,8.65
2018-09-21T08:20:32.307Z,14.43
2018-09-21T08:23:02.775Z,8.93
2018-09-21T08:25:32.999Z,9.05
2018-09-21T08:28:03.149Z,14.13
2018-09-21T08:30:33.364Z,10.65
2018-09-21T08:33:03.377Z,11.50
2018-09-21T08:35:33.524Z,10.40
2018-09-21T08:38:03.716Z,10.28
2018-09-21T08:40:33.937Z,9.30
2018-09-21T08:43:03.981Z,13.48
2018-09-21T08:45:34.115Z,9.23
2018-09-21T08:48:04.123Z,11.53
2018-09-21T08:50:34.265Z,11.30
2018-09-21T08:53:04.496Z,9.10
2018-09-21T08:55:34.641Z,9.45
2018-09-21T08:58:04.732Z,10.88
2018-09-21T09:00:34.917Z,15.43
2018-09-21T09:03:05.195Z,10.90
2018-09-21T09:05:35.257Z,12.23
2018-09-21T09:08:05.613Z,13.38
2018-09-21T09:10:35.621Z,9.25
2018-09-21T09:13:05.773Z,13.15
2018-09-21T09:15:35.962Z,14.30
2018-09-21T09:18:06.101Z,9.83
2018-09-21T09:20:36.478Z,22.65
2018-09-21T09:23:06.849Z,16.95
2018-09-21T09:25:36.866Z,17.60
2018-09-21T09:28:06.891Z,15.83
2018-09-21T09:30:37.061Z,19.27
2018-09-21T09:33:07.320Z,12.78
2018-09-21T09:35:37.337Z,13.48
2018-09-21T09:38:07.477Z,14.83
2018-09-21T09:40:37.503Z,9.28
2018-09-21T09:43:07.580Z,11.10
2018-09-21T09:45:37.560Z,12.05
2018-09-21T09:48:07.717Z,9.43
2018-09-21T09:50:37.774Z,11.60
2018-09-21T09:53:07.887Z,12.85
2018-09-21T09:55:38.033Z,11.55
2018-09-21T09:58:08.278Z,16.45
2018-09-21T10:00:43.954Z,20.20
2018-09-21T10:03:14.040Z,15.72
2018-09-21T10:05:44.733Z,19.25
2018-09-21T10:08:15.079Z,10.23
2018-09-21T10:10:45.182Z,10.23
2018-09-21T10:13:15.400Z,13.88
2018-09-21T10:15:45.458Z,13.35
2018-09-21T10:18:15.714Z,12.85
2018-09-21T10:20:45.900Z,7.90
2018-09-21T10:23:16.061Z,11.15
2018-09-21T10:25:46.213Z,19.65
2018-09-21T10:28:16.412Z,13.90
2018-09-21T10:30:46.323Z,8.73
2018-09-21T10:33:16.377Z,14.33
2018-09-21T10:35:46.367Z,15.88
2018-09-21T10:38:16.602Z,7.80
2018-09-21T10:40:46.504Z,12.50
2018-09-21T10:43:16.582Z,10.55
2018-09-21T10:45:46.638Z,9.55
2018-09-21T10:48:16.612Z,11.93
2018-09-21T10:50:46.633Z,12.75
2018-09-21T10:53:16.912Z,12.23
2018-09-21T10:55:47.122Z,13.30
2018-09-21T10:58:17.192Z,12.60
2018-09-21T11:00:47.436Z,10.53
2018-09-21T11:03:17.572Z,14.28
2018-09-21T11:05:47.665Z,13.40
2018-09-21T11:08:17.879Z,8.23
2018-09-21T11:10:48.045Z,12.37
2018-09-21T11:13:18.104Z,11.53
2018-09-21T11:15:48.180Z,10.70
2018-09-21T11:18:18.285Z,8.20
2018-09-21T11:20:48.486Z,10.40
2018-09-21T11:23:18.531Z,11.53
2018-09-21T11:25:48.797Z,11.03
2018-09-21T11:28:19.112Z,9.13
2018-09-21T11:30:49.293Z,10.75
2018-09-21T11:33:19.538Z,14.65
2018-09-21T11:35:49.649Z,9.70
2018-09-21T11:38:19.777Z,10.03
2018-09-21T11:40:50.037Z,13.55
2018-09-21T11:43:20.119Z,14.55
2018-09-21T11:45:50.534Z,11.00
2018-09-21T11:48:20.636Z,11.20
2018-09-21T11:50:50.725Z,10.63
2018-09-21T11:53:20.928Z,12.58
2018-09-21T11:55:51.022Z,10.00
2018-09-21T11:58:21.316Z,12.18
2018-09-21T12:00:53.318Z,8.88
2018-09-21T12:03:23.528Z,12.50
2018-09-21T12:05:53.604Z,13.72
2018-09-21T12:08:23.766Z,11.10
2018-09-21T12:10:53.935Z,10.90
2018-09-21T12:13:24.013Z,13.98
2018-09-21T12:15:54.203Z,9.98
2018-09-21T12:18:24.332Z,10.32
2018-09-21T12:20:54.447Z,7.12
2018-09-21T12:23:24.711Z,7.85
2018-09-21T12:25:54.835Z,10.13
2018-09-21T12:28:25.012Z,7.53
2018-09-21T12:30:55.073Z,9.48
2018-09-21T12:33:25.279Z,6.75
2018-09-21T12:35:55.359Z,9.05
2018-09-21T12:38:25.501Z,7.60
2018-09-21T12:40:55.577Z,9.63
2018-09-21T12:43:25.842Z,8.93
2018-09-21T12:45:55.960Z,5.70
2018-09-21T12:48:26.250Z,8.50
2018-09-21T12:50:56.521Z,6.58
2018-09-21T12:53:26.648Z,10.93
2018-09-21T12:55:56.801Z,9.18
2018-09-21T12:58:26.983Z,5.53
2018-09-21T13:00:57.056Z,6.80
2018-09-21T13:03:27.073Z,5.33
2018-09-21T13:05:57.831Z,6.15
2018-09-21T13:08:28.082Z,9.80
2018-09-21T13:10:58.106Z,5.30
2018-09-21T13:13:28.210Z,9.03
2018-09-21T13:15:58.300Z,6.37
2018-09-21T13:18:28.369Z,5.87
2018-09-21T13:20:58.364Z,6.05
2018-09-21T13:23:28.403Z,7.85
2018-09-21T13:25:58.405Z,11.30
2018-09-21T13:28:28.424Z,6.20
2018-09-21T13:30:58.406Z,5.58
2018-09-21T13:33:28.484Z,11.10
2018-09-21T13:35:58.545Z,6.50
2018-09-21T13:38:28.726Z,18.05
2018-09-21T13:40:58.817Z,14.95
2018-09-21T13:43:28.937Z,11.73
2018-09-21T13:45:59.474Z,13.93
2018-09-21T13:48:29.580Z,14.50
2018-09-21T13:50:59.613Z,7.62
2018-09-21T13:53:29.817Z,10.05
2018-09-21T13:55:59.859Z,11.70
2018-09-21T13:58:30.009Z,11.12
2018-09-21T14:01:00.091Z,10.88
2018-09-21T14:03:30.232Z,10.82
2018-09-21T14:06:05.433Z,9.05
2018-09-21T14:08:36.365Z,12.30
2018-09-21T14:11:06.478Z,7.55
2018-09-21T14:13:36.475Z,16.02
2018-09-21T14:16:06.962Z,5.22
2018-09-21T14:18:37.053Z,5.95
2018-09-21T14:21:07.147Z,7.22
2018-09-21T14:23:37.210Z,15.30
2018-09-21T14:26:07.272Z,13.85
2018-09-21T14:28:37.498Z,20.65
2018-09-21T14:31:07.827Z,28.27
2018-09-21T14:33:37.956Z,27.73
2018-09-21T14:36:08.113Z,25.48
2018-09-21T14:38:38.244Z,22.00
2018-09-21T14:41:08.433Z,23.77
2018-09-21T14:43:38.533Z,21.95
2018-09-21T14:46:08.886Z,21.42
2018-09-21T14:48:39.402Z,27.52
2018-09-21T14:51:09.529Z,24.70
2018-09-21T14:53:39.628Z,19.50
2018-09-21T14:56:09.693Z,18.60
2018-09-21T14:58:39.753Z,27.90
2018-09-21T15:01:09.808Z,23.80
2018-09-21T15:03:39.949Z,21.12
2018-09-21T15:06:10.192Z,17.52
2018-09-21T15:08:40.447Z,21.02
2018-09-21T15:11:10.741Z,19.67
2018-09-21T15:13:40.824Z,19.45
2018-09-21T15:16:11.140Z,16.93
2018-09-21T15:18:41.252Z,18.80
2018-09-21T15:21:11.438Z,11.68
2018-09-21T15:23:41.454Z,19.30
2018-09-21T15:26:11.619Z,16.32
2018-09-21T15:28:41.917Z,13.53
2018-09-21T15:31:12.226Z,15.45
2018-09-21T15:33:42.381Z,12.88
2018-09-21T15:36:13.059Z,17.95
2018-09-21T15:38:43.138Z,13.55
2018-09-21T15:41:13.347Z,16.95
2018-09-21T15:43:43.569Z,14.33
2018-09-21T15:46:13.610Z,13.70
2018-09-21T15:48:44.281Z,8.80
2018-09-21T15:51:14.821Z,9.13
2018-09-21T15:53:44.914Z,12.18
2018-09-21T15:56:14.966Z,9.20
2018-09-21T15:58:45.215Z,9.25
2018-09-21T16:01:15.253Z,7.70
2018-09-21T16:03:45.617Z,10.65
2018-09-21T16:06:15.747Z,8.98
2018-09-21T16:08:45.870Z,9.68
2018-09-21T16:11:15.990Z,14.45
2018-09-21T16:13:46.326Z,9.35
2018-09-21T16:16:16.663Z,9.73
2018-09-21T16:18:46.915Z,8.45
2018-09-21T16:21:17.073Z,8.85
2018-09-21T16:23:47.505Z,13.28
2018-09-21T16:26:17.568Z,8.10
2018-09-21T16:28:48.048Z,11.12
2018-09-21T16:31:18.166Z,14.90
2018-09-21T16:33:48.584Z,12.65
2018-09-21T16:36:19.000Z,11.43
2018-09-21T16:38:49.157Z,10.80
2018-09-21T16:41:19.280Z,14.70
2018-09-21T16:43:49.486Z,8.28
2018-09-21T16:46:19.718Z,10.58
2018-09-21T16:48:50.128Z,12.43
2018-09-21T16:51:19.626Z,10.75
2018-09-21T16:53:48.192Z,13.15
2018-09-21T16:56:16.569Z,12.25
2018-09-21T16:58:45.147Z,9.55
2018-09-21T17:01:13.522Z,10.15
2018-09-21T17:03:41.779Z,15.63
2018-09-21T17:06:10.162Z,11.00
2018-09-21T17:08:38.506Z,11.93
2018-09-21T17:11:06.952Z,12.90
2018-09-21T17:13:35.231Z,11.65
2018-09-21T17:16:03.763Z,10.25
2018-09-21T17:18:32.119Z,8.83
2018-09-21T17:21:00.539Z,11.12
2018-09-21T17:23:29.028Z,9.95
2018-09-21T17:25:57.329Z,9.15
2018-09-21T17:28:25.617Z,8.70
2018-09-21T17:30:53.834Z,6.58
2018-09-21T17:33:22.271Z,12.47
2018-09-21T17:35:50.622Z,9.20
2018-09-21T17:38:18.979Z,10.48
2018-09-21T17:40:47.192Z,7.35
2018-09-21T17:43:15.650Z,8.98
2018-09-21T17:45:44.339Z,7.10
2018-09-21T17:48:12.531Z,9.18
2018-09-21T17:50:40.859Z,13.10
2018-09-21T17:53:09.179Z,7.05
2018-09-21T17:55:37.503Z,6.70
2018-09-21T17:58:05.885Z,5.53
2018-09-21T18:00:34.131Z,6.80
2018-09-21T18:03:09.102Z,6.75
2018-09-21T18:05:37.327Z,11.08
2018-09-21T18:08:05.550Z,11.10
2018-09-21T18:10:33.808Z,8.03
2018-09-21T18:13:02.006Z,8.40
2018-09-21T18:15:30.344Z,8.15
2018-09-21T18:17:58.699Z,6.10
2018-09-21T18:20:26.985Z,7.65
2018-09-21T18:22:55.257Z,9.38
2018-09-21T18:25:23.677Z,6.58
2018-09-21T18:27:52.137Z,9.78
2018-09-21T18:30:20.341Z,5.85
2018-09-21T18:32:48.734Z,6.80
2018-09-21T18:35:17.236Z,3.65
2018-09-21T18:37:45.426Z,4.83
2018-09-21T18:40:13.656Z,7.28
2018-09-21T18:42:41.908Z,7.80
2018-09-21T18:45:10.197Z,6.87
2018-09-21T18:47:38.529Z,6.17
2018-09-21T18:50:06.857Z,5.15
2018-09-21T18:52:35.027Z,3.30
2018-09-21T18:55:03.522Z,6.22
2018-09-21T18:57:31.976Z,6.03
2018-09-21T19:00:00.095Z,6.00
2018-09-21T19:02:28.304Z,5.80
2018-09-21T19:04:56.626Z,5.97
2018-09-21T19:07:30.832Z,6.35
2018-09-21T19:09:59.708Z,3.42
2018-09-21T19:12:27.945Z,3.67
2018-09-21T19:14:56.074Z,5.95
2018-09-21T19:17:24.768Z,6.75
2018-09-21T19:19:53.193Z,5.17
2018-09-21T19:22:21.912Z,3.67
2018-09-21T19:24:50.289Z,4.40
2018-09-21T19:27:18.777Z,5.75
2018-09-21T19:29:46.946Z,5.00
2018-09-21T19:32:15.227Z,4.45
2018-09-21T19:34:43.443Z,3.42
2018-09-21T19:37:11.649Z,5.60
2018-09-21T19:39:40.224Z,5.67
2018-09-21T19:42:08.497Z,1.92
2018-09-21T19:44:37.004Z,2.30
2018-09-21T19:47:05.338Z,4.42
2018-09-21T19:49:33.609Z,3.20
2018-09-21T19:52:01.963Z,5.62
2018-09-21T19:54:30.513Z,3.85
2018-09-21T19:56:58.707Z,3.80
2018-09-21T19:59:27.126Z,2.70
2018-09-21T20:01:55.404Z,6.47
2018-09-21T20:04:23.592Z,3.33
2018-09-21T20:06:51.851Z,2.30
2018-09-21T20:09:20.127Z,4.12
2018-09-21T20:11:48.435Z,2.92
2018-09-21T20:14:17.049Z,4.70
2018-09-21T20:16:45.487Z,3.20
2018-09-21T20:19:13.929Z,3.05
2018-09-21T20:21:42.321Z,3.05
2018-09-21T20:24:10.538Z,3.12
2018-09-21T20:26:38.937Z,2.55
2018-09-21T20:29:07.186Z,3.90
2018-09-21T20:32:38.914Z,2.08
2018-09-21T20:35:21.971Z,7.70
2018-09-21T20:37:56.531Z,1.77
2018-09-21T20:40:30.940Z,2.85
2018-09-21T20:43:05.287Z,1.77
2018-09-21T20:45:39.737Z,3.65
2018-09-21T20:48:14.182Z,2.27
2018-09-21T20:50:48.462Z,2.77
2018-09-21T20:53:23.275Z,2.62
2018-09-21T20:55:51.463Z,2.05
2018-09-21T20:58:19.730Z,6.33
2018-09-21T21:00:48.138Z,1.80
2018-09-21T21:03:16.669Z,2.30
2018-09-21T21:05:45.080Z,1.65
2018-09-21T21:08:13.889Z,1.70
2018-09-21T21:10:42.355Z,1.60
2018-09-21T21:13:10.835Z,2.37
2018-09-21T21:15:39.160Z,4.22
2018-09-21T21:18:07.559Z,2.90
2018-09-21T21:20:35.921Z,1.85
2018-09-21T21:23:04.611Z,4.17
2018-09-21T21:25:33.226Z,2.47
2018-09-21T21:28:01.528Z,2.02
2018-09-21T21:30:29.909Z,4.75
2018-09-21T21:32:58.450Z,4.78
2018-09-21T21:35:26.830Z,4.12
2018-09-21T21:37:55.236Z,3.50
2018-09-21T21:40:23.522Z,3.42
2018-09-21T21:42:51.872Z,4.05
2018-09-21T21:45:20.293Z,4.28
2018-09-21T21:47:48.625Z,3.85
2018-09-21T21:50:17.301Z,2.12
2018-09-21T21:52:45.769Z,2.37
2018-09-21T21:55:14.236Z,4.37
2018-09-21T21:57:42.741Z,3.02
2018-09-21T22:00:11.293Z,3.75
2018-09-21T22:02:39.619Z,1.47
2018-09-21T22:05:07.974Z,2.65
2018-09-21T22:07:37.663Z,2.17
2018-09-21T22:10:07.407Z,4.85
2018-09-21T22:12:41.647Z,3.10
2018-09-21T22:15:13.198Z,3.55
2018-09-21T22:17:41.505Z,2.00
2018-09-21T22:20:09.966Z,1.98
2018-09-21T22:22:38.269Z,1.57
2018-09-21T22:25:06.801Z,1.85
2018-09-21T22:27:35.239Z,8.08
2018-09-21T22:30:03.936Z,1.50
2018-09-21T22:32:32.241Z,1.90
2018-09-21T22:35:00.659Z,1.20
2018-09-21T22:37:29.097Z,3.55
2018-09-21T22:39:57.620Z,2.58
2018-09-21T22:42:26.040Z,3.50
2018-09-21T22:44:54.594Z,3.15
2018-09-21T22:47:22.953Z,2.92
2018-09-21T22:49:51.434Z,2.00
2018-09-21T22:52:19.751Z,2.72
2018-09-21T22:54:48.112Z,2.77
2018-09-21T22:57:16.603Z,2.40
2018-09-21T22:59:45.038Z,2.77
2018-09-21T23:02:13.359Z,1.52
2018-09-21T23:04:41.794Z,2.30
2018-09-21T23:07:10.240Z,1.40
2018-09-21T23:09:38.805Z,1.67
2018-09-21T23:12:07.144Z,3.75
2018-09-21T23:14:35.684Z,2.75
2018-09-21T23:17:04.156Z,1.80
2018-09-21T23:19:32.459Z,2.15
2018-09-21T23:22:00.774Z,1.32
2018-09-21T23:24:29.315Z,1.42
2018-09-21T23:26:57.811Z,2.15
2018-09-21T23:29:26.247Z,1.92
2018-09-21T23:31:54.731Z,2.60
2018-09-21T23:34:23.158Z,2.87
2018-09-21T23:36:51.503Z,1.57
2018-09-21T23:39:19.814Z,2.85
2018-09-21T23:41:48.270Z,1.52
2018-09-21T23:44:16.592Z,1.62
2018-09-21T23:46:45.028Z,2.20
2018-09-21T23:49:13.305Z,2.05
2018-09-21T23:51:41.560Z,1.60
2018-09-21T23:54:09.975Z,1.85
2018-09-21T23:56:38.394Z,2.20
2018-09-21T23:59:06.778Z,1.20
